• Join FlightAware (Why Join?)
  • Login
  • US Flag 
12:46PM EST


 

Airport Tracker/Info


-or-


 

Live Flight TrackerFlight Track Log ✈ THY651 ✈ 22-Jul-2014 ✈ LTBA / IST - DAAG / ALG

Flight Track Log - Related Links

Times and Time Zones

All times are in EDT time to prevent confusion due to time zone crossing. See the THY651 flight status page for this flight to view local times or setup timezone preferences in your user account.

Time Position Orientation Groundspeed Altitude Reporting Facility
EDT Latitude Longitude Course Direction KTS MPH feet Rate Location/Type
07:18AM 40.9141 27.6850 266° West  Level Estimated
07:19AM 40.9055 27.5431 265° West  Level Estimated
07:20AM 40.8967 27.4013 265° West  Level Estimated
07:21AM 40.8877 27.2596 265° West  Level Estimated
07:22AM 40.8785 27.1178 265° West  Level Estimated
07:23AM 40.8692 26.9761 265° West  Level Estimated
07:23AM 40.8444 27.5812 260° West 389 448 22,400  Level FlightAware ADS-B (LBBG / BOJ)
07:23AM 40.8369 27.5099 266° West 395 455 23,300 1,620 Climbing FlightAware ADS-B (LBBG / BOJ)
07:24AM 40.8364 27.4331 273° West 401 461 24,100 1,440 Climbing FlightAware ADS-B (LBBG / BOJ)
07:24AM 40.8399 27.3577 274° West 409 471 24,800 1,440 Climbing FlightAware ADS-B (LBBG / BOJ)
07:25AM 40.8430 27.2853 274° West 414 476 25,600 1,800 Climbing FlightAware ADS-B (LBBG / BOJ)
07:25AM 40.8459 27.2138 274° West 412 474 26,600 1,680 Climbing FlightAware ADS-B (LBBG / BOJ)
07:26AM 40.8493 27.1319 274° West 415 478 27,300 1,320 Climbing FlightAware ADS-B (LBBG / BOJ)
07:26AM 40.8522 27.0590 273° West 420 483 27,900 1,200 Climbing FlightAware ADS-B (LBBG / BOJ)
07:27AM 40.8553 26.9809 273° West 426 490 28,500 1,260 Climbing FlightAware ADS-B (LBBG / BOJ)
07:27AM 40.8584 26.9013 273° West 429 494 29,200 1,260 Climbing FlightAware ADS-B (LBBG / BOJ)
07:28AM 40.8614 26.8234 273° West 432 497 29,800 1,380 Climbing FlightAware ADS-B (LBBG / BOJ)
07:28AM 40.8644 26.7465 273° West 430 495 30,600 1,200 Climbing FlightAware ADS-B (LBBG / BOJ)
07:29AM 40.8674 26.6661 273° West 436 502 31,000 1,080 Climbing FlightAware ADS-B (LBBG / BOJ)
07:29AM 40.8703 26.5858 273° West 434 499 31,700 1,380 Climbing FlightAware ADS-B (LBBG / BOJ)
07:30AM 40.8730 26.5087 273° West 432 497 32,400 1,500 Climbing FlightAware ADS-B (LBBG / BOJ)
07:30AM 40.8759 26.4286 273° West 425 489 33,200 1,260 Climbing FlightAware ADS-B (LBBG / BOJ)
07:31AM 40.8786 26.3514 273° West 422 486 33,700 720 Climbing FlightAware ADS-B (LBBG / BOJ)
07:31AM 40.8814 26.2594 272° West 415 478 34,000 180 Climbing FlightAware ADS-B (LBBG / BOJ)
07:32AM 40.8756 26.1347 267° West 410 472 34,000  Level FlightAware ADS-B (LBBG / BOJ)
07:33AM 40.8719 26.0603 267° West 411 473 34,000 360 Level FlightAware ADS-B (LBBG / BOJ)
07:33AM 40.8680 25.9898 266° West 414 476 34,400 1,080 Climbing FlightAware ADS-B (LBBG / BOJ)
07:34AM 40.8635 25.9112 266° West 410 472 35,100 1,200 Climbing FlightAware ADS-B (LBBG / BOJ)
07:34AM 40.8592 25.8351 266° West 401 461 35,600 900 Climbing FlightAware ADS-B (LBBG / BOJ)
07:35AM 40.8552 25.7624 266° West 399 459 36,000 300 Climbing FlightAware ADS-B (LBBG / BOJ)
07:36AM 40.8495 25.6617 266° West 397 457 36,000  Level FlightAware ADS-B
07:36AM 40.8454 25.5904 266° West 400 460 36,000  Level FlightAware ADS-B
07:37AM 40.8409 25.5154 266° West 402 463 36,000  Level FlightAware ADS-B
07:37AM 40.8365 25.4403 266° West 402 463 36,000  Level FlightAware ADS-B
07:37AM 40.8324 25.3729 266° West 402 463 36,000  Level FlightAware ADS-B
07:38AM 40.8280 25.3013 266° West 402 463 36,000  Level FlightAware ADS-B
07:39AM 40.8232 25.2227 266° West 402 463 36,000  Level FlightAware ADS-B
07:39AM 40.8218 25.1998 266° West 403 464 36,000  Level FlightAware ADS-B
07:40AM 40.8143 25.0754 266° West 403 464 36,000  Level FlightAware ADS-B
07:40AM 40.8096 25.0010 266° West 403 464 36,000  Level FlightAware ADS-B
07:41AM 40.8049 24.9288 266° West 404 465 36,000  Level FlightAware ADS-B
07:41AM 40.8017 24.8790 266° West 403 464 36,000  Level FlightAware ADS-B
07:42AM 40.7901 24.7010 266° West 405 466 36,000  Level FlightAware ADS-B (LBBG / BOJ)
07:43AM 40.7853 24.6282 265° West 405 466 36,000  Level FlightAware ADS-B (LBBG / BOJ)
07:43AM 40.7803 24.5536 265° West 406 467 36,000  Level FlightAware ADS-B (LBBG / BOJ)
07:44AM 40.7752 24.4793 265° West 407 468 36,000  Level FlightAware ADS-B (LBBG / BOJ)
07:44AM 40.7708 24.4141 265° West 407 468 36,000  Level FlightAware ADS-B (LBBG / BOJ)
07:44AM 40.7699 24.4018 265° West 407 468 36,000  Level FlightAware ADS-B (LBBG / BOJ)
07:45AM 40.7601 24.2604 265° West 408 470 36,000  Level FlightAware ADS-B (LBBG / BOJ)
07:46AM 40.7545 24.1823 265° West 407 468 36,000  Level FlightAware ADS-B (LBBG / BOJ)
07:46AM 40.7494 24.1098 265° West 405 466 36,000  Level FlightAware ADS-B (LBBG / BOJ)
07:47AM 40.7440 24.0361 265° West 403 464 36,000  Level FlightAware ADS-B (LBBG / BOJ)
07:47AM 40.7391 23.9659 265° West 403 464 36,000  Level FlightAware ADS-B (LBBG / BOJ)
07:48AM 40.7340 23.8928 265° West 401 461 36,000  Level FlightAware ADS-B (LBBG / BOJ)
07:48AM 40.7287 23.8205 265° West 400 460 36,000  Level FlightAware ADS-B (LBBG / BOJ)
07:49AM 40.7232 23.7482 265° West 400 460 36,000  Level FlightAware ADS-B (LBBG / BOJ)
07:49AM 40.7212 23.7226 265° West 400 460 36,000  Level FlightAware ADS-B (LBBG / BOJ)
07:49AM 40.7132 23.6152 265° West 403 464 36,000  Level FlightAware ADS-B (LBBG / BOJ)
07:50AM 40.7066 23.5287 265° West 403 464 36,000  Level FlightAware ADS-B (LBBG / BOJ)
07:51AM 40.7009 23.4529 265° West 405 466 36,000  Level FlightAware ADS-B (LBBG / BOJ)
07:52AM 40.6898 23.3122 264° West 404 465 36,000  Level FlightAware ADS-B (LWSK / SKP)
07:52AM 40.6849 23.2496 264° West 405 466 36,000  Level FlightAware ADS-B (LWSK / SKP)
07:53AM 40.6703 23.0642 264° West 406 467 36,000  Level FlightAware ADS-B (LWSK / SKP)
07:54AM 40.6625 22.9692 264° West 404 465 36,000  Level FlightAware ADS-B (LWSK / SKP)
07:55AM 40.6546 22.8732 264° West 402 463 36,000  Level FlightAware ADS-B (LWSK / SKP)
07:55AM 40.6471 22.7815 264° West 402 463 36,000  Level FlightAware ADS-B (LWSK / SKP)
07:56AM 40.6391 22.6875 264° West 402 463 36,000  Level FlightAware ADS-B (LWSK / SKP)
07:58AM 40.6177 22.4336 264° West 401 461 36,000  Level FlightAware ADS-B (LWSK / SKP)
07:58AM 40.6094 22.3370 264° West 400 460 36,000  Level FlightAware ADS-B (LWSK / SKP)
07:59AM 40.6015 22.2459 263° West 395 455 36,000  Level FlightAware ADS-B (LWSK / SKP)
08:00AM 40.5937 22.1586 265° West 393 452 36,000  Level FlightAware ADS-B (LWSK / SKP)
08:00AM 40.5957 22.0576 273° West 397 457 36,000  Level FlightAware ADS-B (LWSK / SKP)
08:01AM 40.5985 21.9652 273° West 398 458 36,000  Level FlightAware ADS-B (LIBX)
08:01AM 40.5999 21.9144 273° West 400 460 36,000 -180 Level FlightAware ADS-B (LIBX)
08:02AM 40.6015 21.8648 272° West 403 464 35,900  Descending FlightAware ADS-B (LWSK / SKP)
08:02AM 40.5980 21.8066 273° West 400 460 36,000 180 Climbing FlightAware ADS-B (LIBX)
08:02AM 40.5928 21.7834 252° West 394 453 36,000  Level FlightAware ADS-B (LIBX)
08:02AM 40.5871 21.7615 251° West 395 455 36,000  Level FlightAware ADS-B (LWSK / SKP)
08:03AM 40.5855 21.7556 251° West 394 453 36,000  Level FlightAware ADS-B (LIBX)
08:03AM 40.5631 21.6705 251° West 392 451 36,000  Level FlightAware ADS-B (LWSK / SKP)
08:03AM 40.5598 21.6583 252° West 392 451 36,000 120 Level FlightAware ADS-B (LIBX)
08:04AM 40.5398 21.5806 251° West 390 449 36,100  Climbing FlightAware ADS-B (LWSK / SKP)
08:04AM 40.5165 21.4921 251° West 390 449 36,000 -120 Descending FlightAware ADS-B (LWSK / SKP)
08:04AM 40.5134 21.4808 251° West 390 449 36,000  Level FlightAware ADS-B (LIBX)
08:05AM 40.4876 21.3891 250° West 393 452 36,000  Level FlightAware ADS-B (LWSK / SKP)
08:06AM 40.4661 21.3109 251° West 394 453 36,000  Level FlightAware ADS-B (LIBX)
08:06AM 40.4559 21.2524 267° West 398 458 36,000  Level FlightAware ADS-B (LIBX)
08:06AM 40.4551 21.2381 266° West 397 457 36,000  Level FlightAware ADS-B (LWSK / SKP)
08:07AM 40.4523 21.1605 268° West 400 460 36,000  Level FlightAware ADS-B (LIBX)
08:07AM 40.4520 21.1509 269° West 400 460 36,000  Level FlightAware ADS-B (LIBX)
08:07AM 40.4499 21.0737 268° West 402 463 36,000  Level FlightAware ADS-B (LWSK / SKP)
08:08AM 40.4473 21.0056 267° West 396 456 36,000  Level FlightAware ADS-B (LIBX)
08:08AM 40.4436 20.8895 274° West 397 457 36,000  Level FlightAware ADS-B (LIBX)
08:09AM 40.4620 20.7718 283° West 402 463 36,000  Level FlightAware ADS-B (LIBX)
08:10AM 40.4738 20.7009 283° West 405 466 36,000  Level FlightAware ADS-B (LIBX)
08:10AM 40.4856 20.6282 283° West 409 471 36,000  Level FlightAware ADS-B (LIBX)
08:11AM 40.4970 20.5419 275° West 409 471 36,000  Level FlightAware ADS-B (LIBX)
08:12AM 40.5010 20.4428 274° West 408 470 36,000 60 Level FlightAware ADS-B (LIBX)
08:12AM 40.5044 20.3705 274° West 408 470 36,100  Climbing FlightAware ADS-B (LIBX)
08:13AM 40.5095 20.2386 274° West 403 464 36,000 -120 Descending FlightAware ADS-B (LIBX)
08:14AM 40.5131 20.1497 273° West 407 468 36,000  Level FlightAware ADS-B (LIBX)
08:14AM 40.5158 20.0773 273° West 417 480 36,000  Level FlightAware ADS-B (LIBX)
08:15AM 40.5190 19.9973 274° West 421 484 36,000  Level FlightAware ADS-B (LIBX)
08:15AM 40.5218 19.9327 274° West 417 480 36,000  Level FlightAware ADS-B (LIBX)
08:16AM 40.5247 19.8482 273° West 418 481 36,000  Level FlightAware ADS-B (LIBX)
08:16AM 40.5275 19.7701 273° West 418 481 36,000  Level FlightAware ADS-B (LIBX)
08:17AM 40.5302 19.6969 273° West 417 480 36,000  Level FlightAware ADS-B (LIBX)
08:17AM 40.5328 19.6232 273° West 417 480 36,000  Level FlightAware ADS-B (LIBX)
08:18AM 40.5355 19.5427 273° West 417 480 36,000  Level FlightAware ADS-B (LIBX)
08:18AM 40.5381 19.4660 273° West 417 480 36,000  Level FlightAware ADS-B (LIBX)
08:19AM 40.5405 19.3914 273° West 418 481 36,000  Level FlightAware ADS-B (LIBX)
08:19AM 40.5433 19.3165 273° West 418 481 36,000  Level FlightAware ADS-B (LIBX)
08:20AM 40.5459 19.2372 273° West 417 480 36,000  Level FlightAware ADS-B (LIBX)
08:20AM 40.5481 19.1625 273° West 418 481 36,000  Level FlightAware ADS-B (LIBX)
08:20AM 40.5503 19.0946 273° West 418 481 36,000  Level FlightAware ADS-B (LIBX)
08:21AM 40.5526 19.0101 272° West 418 481 36,000  Level FlightAware ADS-B (LIBX)
08:22AM 40.5545 18.9330 272° West 418 481 36,000  Level FlightAware ADS-B (LIBX)
08:22AM 40.5563 18.8584 272° West 419 482 36,000  Level FlightAware ADS-B (LIBX)
08:23AM 40.5581 18.7841 272° West 419 482 36,000 360 Level FlightAware ADS-B (LIBX)
08:23AM 40.5602 18.7060 273° West 418 481 36,400 900 Climbing FlightAware ADS-B (LIBX)
08:24AM 40.5619 18.6293 272° West 417 480 36,900 480 Climbing FlightAware ADS-B (LIBX)
08:24AM 40.5639 18.5320 272° West 418 481 37,000 60 Climbing FlightAware ADS-B (LIBX)
08:25AM 40.5659 18.4540 272° West 415 478 37,000  Level FlightAware ADS-B (LIBX)
08:25AM 40.5677 18.3766 272° West 415 478 37,000  Level FlightAware ADS-B (LIBX)
08:26AM 40.5692 18.3043 272° West 416 479 37,000  Level FlightAware ADS-B (LIBX)
08:26AM 40.5707 18.2280 272° West 417 480 37,000  Level FlightAware ADS-B (LIBX)
08:27AM 40.5720 18.1587 272° West 416 479 37,000  Level FlightAware ADS-B (LIBX)
08:27AM 40.5735 18.0748 272° West 417 480 37,000  Level FlightAware ADS-B (LIBX)
08:28AM 40.5748 18.0002 272° West 416 479 37,000 300 Level FlightAware ADS-B (LIBX)
08:28AM 40.5762 17.9228 272° West 416 479 37,300 600 Climbing FlightAware ADS-B (LIBX)
08:29AM 40.5774 17.8466 272° West 419 482 37,600 660 Climbing FlightAware ADS-B (LIBX)
08:29AM 40.5787 17.7698 272° West 420 483 38,000 240 Climbing FlightAware ADS-B (LIBX)
08:30AM 40.5807 17.6326 271° West 421 484 38,000  Level FlightAware ADS-B (LIBX)
08:31AM 40.5820 17.5546 272° West 420 483 38,000  Level FlightAware ADS-B (LIBX)
08:31AM 40.5830 17.4772 271° West 418 481 38,000  Level FlightAware ADS-B (LIBX)
08:32AM 40.5840 17.4013 272° West 416 479 38,000  Level FlightAware ADS-B (LIBX)
08:32AM 40.5850 17.3272 271° West 414 476 38,000  Level FlightAware ADS-B (LIBX)
08:33AM 40.5869 17.1924 271° West 413 475 38,000  Level FlightAware ADS-B (LIBX)
08:34AM 40.5876 17.1123 271° West 414 476 38,000  Level FlightAware ADS-B (LIBX)
08:34AM 40.5882 17.0378 271° West 415 478 38,000  Level FlightAware ADS-B (LIBX)
08:35AM 40.5890 16.9628 271° West 413 475 38,000  Level FlightAware ADS-B (LIBX)
08:35AM 40.5897 16.8874 271° West 415 478 38,000  Level FlightAware ADS-B (LIBX)
08:36AM 40.5901 16.8123 271° West 415 478 38,000  Level FlightAware ADS-B (LIBX)
08:36AM 40.5908 16.7345 271° West 416 479 38,000  Level FlightAware ADS-B (LIBX)
08:37AM 40.5913 16.6599 271° West 416 479 38,000  Level FlightAware ADS-B (LIBX)
08:37AM 40.5914 16.5917 271° West 416 479 38,000  Level FlightAware ADS-B (LIBX)
08:37AM 40.5918 16.5253 271° West 414 476 38,000  Level FlightAware ADS-B (LIBX)
08:38AM 40.5922 16.4348 271° West 413 475 38,000  Level FlightAware ADS-B (LIBX)
08:38AM 40.5927 16.3658 271° West 413 475 38,000  Level FlightAware ADS-B (LIBX)
08:39AM 40.5932 16.2964 271° West 411 473 38,000  Level FlightAware ADS-B (LIBX)
08:39AM 40.5935 16.2449 271° West 409 471 38,000  Level FlightAware ADS-B (LIBX)
08:40AM 40.5938 16.1696 271° West 408 470 38,000  Level FlightAware ADS-B (LIBX)
08:41AM 40.5936 16.0663 270° West 407 468 38,000  Level FlightAware ADS-B (LIBX)
08:41AM 40.5935 16.0085 270° West 409 471 38,000  Level FlightAware ADS-B (LIBX)
08:42AM 40.5932 15.9121 270° West 410 472 38,000  Level FlightAware ADS-B (LIBX)
08:42AM 40.5948 15.8380 277° West 411 473 38,000  Level FlightAware ADS-B (LIBX)
08:43AM 40.6006 15.7669 276° West 411 473 38,000  Level FlightAware ADS-B (LIBX)
08:43AM 40.6060 15.6882 276° West 414 476 38,000  Level FlightAware ADS-B (LIBX)
08:44AM 40.6114 15.6124 276° West 406 467 38,000  Level FlightAware ADS-B (LIBX)
08:44AM 40.6170 15.5402 276° West 402 463 38,000  Level FlightAware ADS-B (LIBX)
08:45AM 40.6222 15.4690 276° West 402 463 38,000  Level FlightAware ADS-B (LIBX)
08:45AM 40.6274 15.3942 276° West 403 464 38,000  Level FlightAware ADS-B (LIBX)
08:46AM 40.6324 15.3222 276° West 404 465 38,000  Level FlightAware ADS-B (LIBX)
08:46AM 40.6375 15.2474 276° West 405 466 38,000  Level FlightAware ADS-B (LIBX)
08:47AM 40.6423 15.1761 276° West 405 466 38,000  Level FlightAware ADS-B (LIBX)
08:47AM 40.6478 15.1004 276° West 405 466 38,000  Level FlightAware ADS-B (LIBX)
08:48AM 40.6531 15.0271 276° West 405 466 38,000  Level FlightAware ADS-B (LIBX)
08:48AM 40.6549 15.0022 276° West 405 466 38,000  Level FlightAware ADS-B (LIBX)
08:55AM 40.7218 13.9234 275° West 406 467 38,000  Level FlightAware ADS-B (LIRU)
08:55AM 40.7229 13.9033 275° West 407 468 38,000  Level FlightAware ADS-B (LIRU)
08:57AM 40.7342 13.7056 275° West 417 480 38,000  Level FlightAware ADS-B (LIRU)
08:57AM 40.7385 13.6242 275° West 424 488 38,000  Level FlightAware ADS-B (LIRU)
08:57AM 40.7421 13.5626 275° West 425 489 38,000  Level FlightAware ADS-B (LIRU)
08:58AM 40.7476 13.4700 275° West 426 490 38,000  Level FlightAware ADS-B (LIRU)
08:59AM 40.7514 13.3979 274° West 426 490 38,000  Level FlightAware ADS-B (LIRU)
08:59AM 40.7546 13.3352 274° West 427 491 38,000  Level FlightAware ADS-B (LIRU)
09:00AM 40.7595 13.2353 274° West 428 493 38,000  Level FlightAware ADS-B (LIRU)
09:00AM 40.7635 13.1569 274° West 429 494 38,000  Level FlightAware ADS-B (LIRU)
09:01AM 40.7670 13.0799 274° West 430 495 38,000  Level FlightAware ADS-B (LIRU)
09:01AM 40.7709 13.0062 275° West 432 497 38,000  Level FlightAware ADS-B (LIRU)
09:02AM 40.7754 12.9207 274° West 432 497 38,000  Level FlightAware ADS-B (LIRU)
09:02AM 40.7796 12.8403 274° West 432 497 38,000  Level FlightAware ADS-B (LIRU)
09:03AM 40.7830 12.7651 274° West 431 496 38,000  Level FlightAware ADS-B (LIRU)
09:03AM 40.7868 12.6860 274° West 429 494 38,000  Level FlightAware ADS-B (LIRU)
09:04AM 40.7906 12.6073 274° West 428 493 38,000  Level FlightAware ADS-B (LIRU)
09:04AM 40.7939 12.5295 274° West 428 493 38,000 -120 Level FlightAware ADS-B (LIRU)
09:05AM 40.7971 12.4506 274° West 429 494 37,900 -120 Descending FlightAware ADS-B (LIRU)
09:05AM 40.8001 12.3760 274° West 430 495 37,900 60 Level FlightAware ADS-B (LIRU)
09:06AM 40.8036 12.2925 274° West 432 497 38,000 60 Climbing FlightAware ADS-B (LIRU)
09:06AM 40.8066 12.2189 273° West 433 498 38,000  Level FlightAware ADS-B (LIRU)
09:07AM 40.8095 12.1361 273° West 434 499 38,000  Level FlightAware ADS-B (LIRU)
09:07AM 40.8126 12.0576 274° West 435 501 38,000  Level FlightAware ADS-B (LIRU)
09:08AM 40.8156 11.9754 273° West 436 502 38,000  Level FlightAware ADS-B (LIRU)
09:08AM 40.8183 11.8946 273° West 437 503 38,000  Level FlightAware ADS-B (LIRU)
09:09AM 40.8209 11.8228 273° West 435 501 38,000  Level FlightAware ADS-B (LIRU)
09:09AM 40.8236 11.7384 273° West 434 499 38,000  Level FlightAware ADS-B (LIRU)
09:09AM 40.8253 11.6724 272° West 434 499 38,000  Level FlightAware ADS-B (LIRU)
09:10AM 40.8277 11.5786 272° West 433 498 38,000  Level FlightAware ADS-B (LIRU)
09:11AM 40.8292 11.5273 273° West 432 497 38,000  Level FlightAware ADS-B (LIRU)
09:11AM 40.8321 11.4464 273° West 432 497 38,000  Level FlightAware ADS-B (LIRU)
09:11AM 40.8333 11.4138 273° West 428 493 38,000  Level FlightAware ADS-B (LIRU)
09:12AM 40.8385 11.2338 273° West 428 493 38,000 -420 Level FlightAware ADS-B (LIRU)
09:14AM 40.8087 10.9737 262° West 415 478 37,000 -300 Descending FlightAware ADS-B (LIRU)
09:16AM 40.7795 10.7260 262° West 411 473 37,000  Level FlightAware ADS-B (LIRU)
09:18AM 40.7446 10.4312 262° West 408 470 37,000  Level FlightAware ADS-B (LIRU)
09:18AM 40.7409 10.3996 261° West 410 472 37,000  Level FlightAware ADS-B (LIED / DCI)
09:20AM 40.7004 10.0709 263° West 404 465 37,000  Level FlightAware ADS-B (LIED / DCI)
09:21AM 40.6827 9.9248 261° West 407 468 37,000  Level FlightAware ADS-B (LIED / DCI)
09:21AM 40.6801 9.9043 261° West 407 468 37,000  Level FlightAware ADS-B (LIRU)
09:22AM 40.6787 9.8938 261° West 407 468 37,000  Level FlightAware ADS-B (LIRU)
09:22AM 40.6635 9.7747 260° West 413 475 37,000  Level FlightAware ADS-B (LIED / DCI)
09:23AM 40.6445 9.6253 260° West 407 468 37,000  Level FlightAware ADS-B (LIED / DCI)
09:24AM 40.6258 9.4808 261° West 402 463 37,000  Level FlightAware ADS-B (LIED / DCI)
09:25AM 40.6071 9.3375 260° West 397 457 37,000  Level FlightAware ADS-B (LIED / DCI)
09:26AM 40.5886 9.1949 260° West 397 457 37,000  Level FlightAware ADS-B (LIED / DCI)
09:27AM 40.5694 9.0512 260° West 398 458 37,000  Level FlightAware ADS-B (LIED / DCI)
09:28AM 40.5494 8.8992 260° West 399 459 37,000  Level FlightAware ADS-B (LIED / DCI)
09:29AM 40.5301 8.7564 260° West 395 455 37,000  Level FlightAware ADS-B (LIED / DCI)
09:30AM 40.5109 8.6161 260° West 391 450 37,000  Level FlightAware ADS-B (LIED / DCI)
09:31AM 40.4916 8.4772 260° West 388 447 37,000  Level FlightAware ADS-B (LIED / DCI)
09:32AM 40.4722 8.3379 260° West 392 451 37,000  Level FlightAware ADS-B (LIED / DCI)
09:33AM 40.4511 8.1867 261° West 392 451 37,000  Level FlightAware ADS-B (LIED / DCI)
09:34AM 40.4254 8.0194 251° West 398 458 37,000  Level FlightAware ADS-B (LIED / DCI)
09:35AM 40.3605 7.9124 223° Southwest 425 489 37,000  Level FlightAware ADS-B (LIED / DCI)
09:38AM 40.2049 7.6978 227° Southwest  Level Estimated
09:39AM 40.1307 7.5959 226° Southwest  Level Estimated
09:40AM 40.0564 7.4943 226° Southwest  Level Estimated
09:41AM 39.9819 7.3929 226° Southwest  Level Estimated
09:42AM 39.9075 7.2917 226° Southwest  Level Estimated
09:43AM 39.8329 7.1907 226° Southwest  Level Estimated
09:44AM 39.7582 7.0900 226° Southwest  Level Estimated
09:45AM 39.6834 6.9895 226° Southwest  Level Estimated
09:46AM 39.6086 6.8892 226° Southwest  Level Estimated
09:47AM 39.5336 6.7891 226° Southwest  Level Estimated
09:48AM 39.4586 6.6892 226° Southwest  Level Estimated
09:49AM 39.3835 6.5896 226° Southwest  Level Estimated
09:50AM 39.3083 6.4901 226° Southwest  Level Estimated
09:51AM 39.2330 6.3909 226° Southwest  Level Estimated
09:52AM 39.1577 6.2919 226° Southwest  Level Estimated
09:53AM 39.0822 6.1931 225° Southwest  Level Estimated
09:54AM 39.0067 6.0945 225° Southwest  Level Estimated
09:55AM 38.9311 5.9961 225° Southwest  Level Estimated
09:56AM 38.8554 5.8979 225° Southwest  Level Estimated
09:57AM 38.7796 5.8000 225° Southwest  Level Estimated
09:58AM 38.7038 5.7022 225° Southwest  Level Estimated
09:59AM 38.6278 5.6046 225° Southwest  Level Estimated
10:00AM 38.5518 5.5073 225° Southwest  Level Estimated
10:01AM 38.4757 5.4102 225° Southwest  Level Estimated
10:02AM 38.3996 5.3132 225° Southwest  Level Estimated
10:03AM 38.3233 5.2165 225° Southwest  Level Estimated
10:04AM 38.2470 5.1200 225° Southwest  Level Estimated
10:05AM 38.1706 5.0237 225° Southwest  Level Estimated
10:06AM 38.0941 4.9275 225° Southwest  Level Estimated
10:07AM 38.0175 4.8316 225° Southwest  Level Estimated
10:08AM 37.9408 4.7359 225° Southwest  Level Estimated
10:09AM 37.8641 4.6404 225° Southwest  Level Estimated
10:10AM 37.7873 4.5451 224° Southwest  Level Estimated
10:11AM 37.7104 4.4499 224° Southwest  Level Estimated
10:12AM 37.6335 4.3550 224° Southwest  Level Estimated
10:13AM 37.5564 4.2603 224° Southwest  Level Estimated
10:14AM 37.4793 4.1658 224° Southwest  Level Estimated
10:15AM 37.4021 4.0714 224° Southwest  Level Estimated
10:16AM 37.3249 3.9773 224° Southwest  Level Estimated
10:17AM 37.2476 3.8833 224° Southwest  Level Estimated
10:18AM 37.1702 3.7896 224° Southwest  Level Estimated
10:19AM 37.0927 3.6960 224° Southwest  Level Estimated
10:20AM 37.0151 3.6026 224° Southwest  Level Estimated
10:21AM 36.9375 3.5094 224° Southwest  Level Estimated
10:22AM 36.8598 3.4165 224° Southwest  Level Estimated
10:23AM 36.7820 3.3236 224° Southwest  Level Estimated
10:24AM 36.7042 3.2310 224° Southwest  Level Estimated
10:25AM 36.6910 3.2154 224° Southwest  Level Estimated
10:26AM 36.6910 3.2154 North  Level Estimated
10:27AM 36.6910 3.2154 North  Level Estimated
10:28AM 36.6910 3.2154 North  Level Estimated
10:29AM 36.6910 3.2154 North  Level Estimated
10:30AM 36.6910 3.2154 North  Level Estimated
10:31AM 36.6910 3.2154 North  Level Estimated
10:32AM 36.6910 3.2154 North  Level Estimated
10:33AM 36.6910 3.2154 North  Level Estimated
10:34AM 36.6910 3.2154 North  Level Estimated
10:35AM 36.6910 3.2154 North  Level Estimated